Time;durP1;ratioP1;P1;durP2;ratioP2;P2;SDS_P1;SDS_P2;PMS_P1;PMS_P2;Temp;Humidity;BMP_temperature;BMP_pressure;BME280_temperature;BME280_humidity;BME280_pressure;Samples;Min_cycle;Max_cycle;Signal;HPM_P1;HPM_P2
2023/07/08 00:00:43;;;;;;;10.15;5.78;;;16.70;99.90;;;;;;5016545;28;20060;-38
2023/07/08 00:03:09;;;;;;;10.85;6.47;;;16.70;99.90;;;;;;5015805;28;20050;-42
2023/07/08 00:05:35;;;;;;;9.55;5.65;;;16.60;99.90;;;;;;5024330;28;20038;-38
2023/07/08 00:08:01;;;;;;;10.27;5.70;;;16.50;99.90;;;;;;5004966;28;20025;-38
2023/07/08 00:10:28;;;;;;;12.95;5.72;;;16.50;99.90;;;;;;5021981;28;20034;-41
2023/07/08 00:12:56;;;;;;;11.00;6.03;;;16.50;99.90;;;;;;5022208;28;20044;-42
2023/07/08 00:15:32;;;;;;;13.18;5.65;;;16.50;99.90;;;;;;5022338;28;20736;-41
2023/07/08 00:17:58;;;;;;;8.02;5.35;;;16.50;99.90;;;;;;4997998;28;20037;-42
2023/07/08 00:20:31;;;;;;;10.27;5.57;;;16.40;99.90;;;;;;5016403;28;20034;-42
2023/07/08 00:22:57;;;;;;;12.30;6.43;;;16.40;99.90;;;;;;5020054;28;20030;-33
2023/07/08 00:25:22;;;;;;;8.52;5.50;;;16.40;99.90;;;;;;5024486;28;20038;-32
2023/07/08 00:27:48;;;;;;;9.60;5.38;;;16.40;99.90;;;;;;5022638;28;20096;-37
2023/07/08 00:30:19;;;;;;;10.27;5.75;;;16.40;99.90;;;;;;5024360;28;20025;-34
2023/07/08 00:32:45;;;;;;;11.00;5.65;;;16.50;99.90;;;;;;5022078;28;20593;-33
2023/07/08 00:35:10;;;;;;;9.15;5.70;;;16.50;99.90;;;;;;5023270;28;20113;-35
2023/07/08 00:37:36;;;;;;;10.27;6.18;;;16.40;99.90;;;;;;5021982;28;20031;-35
2023/07/08 00:40:14;;;;;;;9.73;5.68;;;16.40;99.90;;;;;;5022203;28;20432;-37
2023/07/08 00:42:40;;;;;;;12.00;6.38;;;16.40;99.90;;;;;;5024849;28;20025;-33
2023/07/08 00:45:43;;;;;;;8.73;5.40;;;16.30;99.90;;;;;;5019833;28;20026;-39
2023/07/08 00:48:29;;;;;;;11.20;5.25;;;16.30;99.90;;;;;;5025978;28;20033;-32
2023/07/08 00:50:55;;;;;;;8.70;5.32;;;16.20;99.90;;;;;;5021411;28;20057;-33
2023/07/08 00:53:32;;;;;;;7.70;4.90;;;16.30;99.90;;;;;;5024723;28;20109;-34
2023/07/08 00:56:26;;;;;;;8.98;5.22;;;16.20;99.90;;;;;;5021277;28;20030;-33
2023/07/08 00:58:56;;;;;;;7.90;4.70;;;16.30;99.90;;;;;;5023319;28;20041;-33
2023/07/08 01:01:22;;;;;;;9.55;5.30;;;16.20;99.90;;;;;;5026483;28;20040;-33
2023/07/08 01:03:55;;;;;;;8.63;4.70;;;16.20;99.90;;;;;;5022100;28;20038;-32
2023/07/08 01:06:23;;;;;;;7.97;4.72;;;16.20;99.90;;;;;;5024219;28;20049;-35
2023/07/08 01:08:52;;;;;;;7.65;4.95;;;16.20;99.90;;;;;;5025063;28;20588;-33
2023/07/08 01:11:21;;;;;;;7.97;4.65;;;16.20;99.90;;;;;;5022990;28;20105;-32
2023/07/08 01:13:50;;;;;;;9.45;5.47;;;16.20;99.90;;;;;;5023743;28;20037;-33
2023/07/08 01:16:16;;;;;;;9.32;4.97;;;16.10;99.90;;;;;;5027971;28;20048;-33
2023/07/08 01:18:43;;;;;;;8.63;4.95;;;16.00;99.90;;;;;;5017508;28;20041;-33
2023/07/08 01:21:30;;;;;;;11.10;5.60;;;16.00;99.90;;;;;;5026040;28;20029;-34
2023/07/08 01:23:56;;;;;;;9.27;5.32;;;15.80;99.90;;;;;;5017911;28;20112;-33
2023/07/08 01:26:24;;;;;;;6.80;4.07;;;15.80;99.90;;;;;;5023945;28;20175;-33
2023/07/08 01:28:50;;;;;;;;;;;15.80;99.90;;;;;;5025241;28;20033;-33
2023/07/08 01:31:16;;;;;;;10.65;5.00;;;15.80;99.90;;;;;;5020365;28;19936;-42
2023/07/08 01:33:42;;;;;;;8.95;4.93;;;15.90;99.90;;;;;;5024937;28;20368;-33
2023/07/08 01:36:12;;;;;;;9.13;4.70;;;15.90;99.90;;;;;;5023513;28;20058;-42
2023/07/08 01:38:39;;;;;;;6.07;4.47;;;15.80;99.90;;;;;;5017317;28;20105;-42
2023/07/08 01:41:05;;;;;;;7.88;5.07;;;15.70;99.90;;;;;;5008533;28;20030;-41
2023/07/08 01:43:31;;;;;;;6.72;4.63;;;15.70;99.90;;;;;;5020288;28;20484;-40
2023/07/08 01:46:01;;;;;;;6.95;4.65;;;15.70;99.90;;;;;;5019699;28;20036;-41
2023/07/08 01:48:36;;;;;;;6.80;4.72;;;15.70;99.90;;;;;;5024810;28;20061;-41
2023/07/08 01:51:05;;;;;;;8.48;4.60;;;15.60;99.90;;;;;;5026400;28;20021;-37
2023/07/08 01:53:41;;;;;;;9.38;4.70;;;15.50;99.90;;;;;;5025390;28;20072;-39
2023/07/08 01:56:09;;;;;;;7.97;4.82;;;15.50;99.90;;;;;;5022598;28;20109;-41
2023/07/08 01:58:34;;;;;;;7.72;5.10;;;15.50;99.90;;;;;;5020426;28;20379;-40
2023/07/08 02:01:00;;;;;;;7.90;5.00;;;15.50;99.90;;;;;;5024111;28;20041;-42
2023/07/08 02:03:27;;;;;;;6.55;4.50;;;15.50;99.90;;;;;;5023141;28;20033;-42
2023/07/08 02:05:53;;;;;;;7.85;4.93;;;15.60;99.90;;;;;;5019693;28;20021;-39
2023/07/08 02:08:19;;;;;;;8.02;4.90;;;15.60;99.90;;;;;;5024973;28;20824;-37
2023/07/08 02:10:51;;;;;;;7.80;4.57;;;15.60;99.90;;;;;;5019118;28;20061;-33
2023/07/08 02:13:17;;;;;;;7.45;4.93;;;15.70;99.90;;;;;;5023759;28;20053;-33
2023/07/08 02:15:42;;;;;;;9.27;5.00;;;15.60;99.90;;;;;;5025707;28;20037;-37
2023/07/08 02:18:08;;;;;;;6.30;4.68;;;15.60;99.90;;;;;;5022806;28;20045;-33
2023/07/08 02:20:34;;;;;;;7.43;4.78;;;15.50;99.90;;;;;;5022036;28;20391;-34
2023/07/08 02:22:59;;;;;;;7.40;4.55;;;15.50;99.90;;;;;;5024701;28;20033;-34
2023/07/08 02:25:25;;;;;;;7.65;4.35;;;15.50;99.90;;;;;;5025135;28;20026;-33
2023/07/08 02:27:51;;;;;;;6.53;4.38;;;15.50;99.90;;;;;;5024002;28;20033;-34
2023/07/08 02:30:17;;;;;;;9.02;4.55;;;15.50;99.90;;;;;;5023238;28;20029;-35
2023/07/08 02:32:56;;;;;;;9.68;4.82;;;15.30;99.90;;;;;;5021758;28;20041;-40
2023/07/08 02:35:23;;;;;;;7.72;4.93;;;15.30;99.90;;;;;;5021914;28;20024;-34
2023/07/08 02:37:49;;;;;;;7.33;5.20;;;15.20;99.90;;;;;;5022133;28;20140;-33
2023/07/08 02:40:15;;;;;;;8.35;4.63;;;15.00;99.90;;;;;;5020172;28;20112;-33
2023/07/08 02:42:40;;;;;;;7.50;4.53;;;14.90;99.90;;;;;;5023159;28;20030;-42
2023/07/08 02:45:07;;;;;;;7.18;4.38;;;15.00;99.90;;;;;;5019969;28;20032;-39
2023/07/08 02:47:32;;;;;;;7.75;4.80;;;15.00;99.90;;;;;;5024006;28;20399;-42
2023/07/08 02:49:58;;;;;;;7.95;4.55;;;15.00;99.90;;;;;;5021316;28;20021;-38
2023/07/08 02:52:23;;;;;;;6.72;4.25;;;15.10;99.90;;;;;;5022082;28;20506;-40
2023/07/08 02:54:49;;;;;;;14.82;4.80;;;15.20;99.90;;;;;;5027383;28;20467;-40
2023/07/08 02:57:14;;;;;;;9.40;5.18;;;15.20;99.90;;;;;;5020319;28;20034;-39
2023/07/08 02:59:40;;;;;;;6.78;4.57;;;15.20;99.90;;;;;;5016182;28;20101;-39
2023/07/08 03:02:05;;;;;;;6.40;4.20;;;15.20;99.90;;;;;;5018704;28;20076;-39
2023/07/08 03:04:31;;;;;;;8.32;4.38;;;15.20;99.90;;;;;;5016119;28;20030;-42
2023/07/08 03:06:57;;;;;;;7.15;4.10;;;15.30;99.90;;;;;;5020163;28;20030;-42
2023/07/08 03:09:22;;;;;;;6.60;4.60;;;15.20;99.90;;;;;;5021691;28;20787;-42
2023/07/08 03:11:48;;;;;;;7.75;4.70;;;15.20;99.90;;;;;;5019349;28;20108;-40
2023/07/08 03:14:13;;;;;;;7.43;4.40;;;15.20;99.90;;;;;;5020746;28;20289;-42
2023/07/08 03:16:39;;;;;;;7.55;4.53;;;15.20;99.90;;;;;;5021734;28;20069;-42
2023/07/08 03:19:05;;;;;;;7.55;4.30;;;15.30;99.90;;;;;;5019576;28;20069;-36
2023/07/08 03:21:31;;;;;;;9.38;4.70;;;15.30;99.90;;;;;;5025774;28;20080;-41
2023/07/08 03:23:57;;;;;;;6.88;4.72;;;15.40;99.90;;;;;;5022147;28;20041;-40
2023/07/08 03:26:26;;;;;;;10.18;5.38;;;15.40;99.90;;;;;;5020866;28;20065;-40
2023/07/08 03:28:51;;;;;;;10.40;5.07;;;15.40;99.90;;;;;;5022206;28;20479;-41
2023/07/08 03:31:17;;;;;;;8.35;4.40;;;15.30;99.90;;;;;;5024036;28;20033;-37
2023/07/08 03:33:43;;;;;;;6.70;4.30;;;15.20;99.90;;;;;;5021372;28;20030;-40
2023/07/08 03:36:24;;;;;;;7.82;4.47;;;15.30;99.90;;;;;;5022700;28;20526;-41
2023/07/08 03:38:57;;;;;;;8.32;4.10;;;15.20;99.90;;;;;;5017289;28;20495;-38
2023/07/08 03:41:24;;;;;;;9.52;4.95;;;15.20;99.90;;;;;;5025003;28;20124;-41
2023/07/08 03:43:53;;;;;;;6.30;4.05;;;15.00;99.90;;;;;;5020956;28;20111;-41
2023/07/08 03:46:23;;;;;;;5.90;4.30;;;14.80;99.90;;;;;;5018783;28;20557;-41
2023/07/08 03:48:49;;;;;;;6.47;4.70;;;14.80;99.90;;;;;;5024273;28;20032;-41
2023/07/08 03:51:29;;;;;;;8.05;4.40;;;14.70;99.90;;;;;;5018088;28;20030;-39
2023/07/08 03:53:54;;;;;;;8.23;4.18;;;14.60;99.90;;;;;;5026621;28;20503;-40
2023/07/08 03:56:20;;;;;;;7.00;4.85;;;14.70;99.90;;;;;;5021831;28;20034;-41
2023/07/08 03:58:46;;;;;;;6.78;4.40;;;14.80;99.90;;;;;;5021868;28;20789;-41
2023/07/08 04:01:20;;;;;;;8.73;5.35;;;14.90;99.90;;;;;;5024363;28;20049;-40
2023/07/08 04:03:46;;;;;;;7.25;4.43;;;14.90;99.90;;;;;;5025051;28;20036;-38
2023/07/08 04:06:12;;;;;;;7.40;4.57;;;15.00;99.90;;;;;;5024142;28;20034;-40
2023/07/08 04:08:38;;;;;;;8.13;4.75;;;15.10;99.90;;;;;;5027399;28;20029;-41
2023/07/08 04:11:04;;;;;;;9.52;4.47;;;15.20;99.90;;;;;;5026745;28;20349;-39
2023/07/08 04:13:29;;;;;;;9.40;5.30;;;15.40;99.90;;;;;;5024484;28;20423;-38
2023/07/08 04:15:59;;;;;;;10.98;5.40;;;15.40;99.90;;;;;;5023804;28;20034;-38
2023/07/08 04:18:24;;;;;;;11.10;4.97;;;15.40;99.90;;;;;;5023547;28;20041;-37
2023/07/08 04:20:52;;;;;;;8.27;4.50;;;15.40;99.90;;;;;;5022257;28;20286;-41
2023/07/08 04:23:24;;;;;;;6.82;4.95;;;15.50;99.90;;;;;;5025813;28;20527;-41
2023/07/08 04:25:53;;;;;;;9.00;5.10;;;15.60;99.90;;;;;;5024382;28;20037;-37
2023/07/08 04:28:19;;;;;;;7.88;4.90;;;15.70;99.90;;;;;;5026970;28;20026;-41
2023/07/08 04:30:45;;;;;;;6.95;4.53;;;15.70;99.90;;;;;;5025820;28;20037;-31
2023/07/08 04:33:12;;;;;;;7.22;4.20;;;15.80;99.90;;;;;;5024890;28;20336;-34
2023/07/08 04:35:40;;;;;;;8.77;4.50;;;15.90;99.90;;;;;;5028084;28;20029;-32
2023/07/08 04:38:16;;;;;;;8.82;4.53;;;16.00;99.90;;;;;;5027412;28;20052;-31
2023/07/08 04:40:42;;;;;;;7.00;4.72;;;16.10;99.90;;;;;;5030105;28;20040;-37
2023/07/08 04:43:10;;;;;;;7.72;4.97;;;16.30;99.90;;;;;;5026472;28;20030;-32
2023/07/08 04:45:37;;;;;;;6.82;4.65;;;16.40;99.90;;;;;;5012829;28;20411;-31
2023/07/08 04:48:08;;;;;;;9.50;5.38;;;16.40;99.90;;;;;;5028252;28;20060;-31
2023/07/08 04:50:34;;;;;;;6.18;4.50;;;16.50;99.90;;;;;;5025917;28;20022;-31
2023/07/08 04:53:00;;;;;;;8.70;5.22;;;16.40;99.90;;;;;;5025692;28;20435;-32
2023/07/08 04:55:25;;;;;;;7.30;4.60;;;16.40;99.90;;;;;;5024338;28;20045;-34
2023/07/08 04:57:51;;;;;;;8.85;5.05;;;16.50;99.90;;;;;;5027564;28;20026;-32
2023/07/08 05:00:19;;;;;;;7.90;4.78;;;16.60;99.90;;;;;;5029499;28;20040;-32
2023/07/08 05:02:45;;;;;;;8.02;5.60;;;16.70;99.90;;;;;;5024630;28;20046;-40
2023/07/08 05:05:10;;;;;;;7.93;4.90;;;16.80;99.90;;;;;;5022319;28;20021;-41
2023/07/08 05:07:36;;;;;;;6.18;4.18;;;17.00;99.90;;;;;;5022712;28;20030;-42
2023/07/08 05:10:05;;;;;;;6.85;4.30;;;17.10;99.90;;;;;;5019303;28;20029;-39
2023/07/08 05:12:31;;;;;;;7.35;4.68;;;17.30;99.90;;;;;;5023734;28;20033;-41
2023/07/08 05:14:56;;;;;;;11.02;4.88;;;17.40;99.90;;;;;;5025793;28;20033;-39
2023/07/08 05:17:22;;;;;;;8.32;4.95;;;17.40;99.90;;;;;;5018959;28;20040;-40
2023/07/08 05:19:50;;;;;;;6.95;4.65;;;17.50;99.90;;;;;;5021976;28;20507;-41
2023/07/08 05:22:18;;;;;;;7.15;4.90;;;17.60;99.90;;;;;;5020119;28;20033;-41
2023/07/08 05:24:43;;;;;;;6.17;4.37;;;17.60;99.90;;;;;;5024110;28;20033;-40
2023/07/08 05:27:09;;;;;;;7.80;4.47;;;17.70;99.90;;;;;;5026573;28;20029;-42
2023/07/08 05:29:34;;;;;;;8.00;4.70;;;17.70;99.90;;;;;;5025311;28;20109;-40
2023/07/08 05:32:00;;;;;;;7.57;4.53;;;17.80;99.90;;;;;;5023773;28;20017;-38
2023/07/08 05:34:26;;;;;;;8.45;4.57;;;17.90;99.90;;;;;;5022879;28;20029;-42
2023/07/08 05:36:51;;;;;;;8.57;4.30;;;17.90;99.90;;;;;;5022106;28;20038;-41
2023/07/08 05:39:17;;;;;;;7.10;4.10;;;18.00;99.90;;;;;;5022762;28;20032;-40
2023/07/08 05:41:42;;;;;;;7.28;4.50;;;18.00;99.90;;;;;;5025982;28;20033;-42
2023/07/08 05:44:08;;;;;;;6.70;4.53;;;18.10;99.90;;;;;;5025926;28;20436;-41
2023/07/08 05:46:33;;;;;;;6.65;4.15;;;18.10;99.90;;;;;;5021341;28;20026;-41
2023/07/08 05:48:59;;;;;;;6.82;4.57;;;18.10;99.90;;;;;;5025314;28;20034;-38
2023/07/08 05:51:25;;;;;;;8.30;4.50;;;18.20;99.90;;;;;;5027672;28;20040;-41
2023/07/08 05:53:50;;;;;;;8.93;4.93;;;18.40;99.90;;;;;;5022610;28;20032;-42
2023/07/08 05:56:16;;;;;;;6.15;4.30;;;18.70;99.90;;;;;;5006669;28;20030;-40
2023/07/08 05:58:41;;;;;;;8.23;4.60;;;19.00;99.90;;;;;;5022507;28;20030;-41
2023/07/08 06:01:07;;;;;;;7.05;4.50;;;19.20;99.90;;;;;;5020811;28;20090;-41
2023/07/08 06:03:32;;;;;;;6.35;4.28;;;19.40;99.90;;;;;;5025038;28;20044;-41
2023/07/08 06:05:58;;;;;;;7.60;4.63;;;19.60;99.90;;;;;;5026662;28;20075;-42
2023/07/08 06:08:24;;;;;;;8.10;5.43;;;19.70;99.90;;;;;;5020857;28;20040;-41
2023/07/08 06:10:50;;;;;;;6.68;4.80;;;19.60;99.90;;;;;;5023631;28;20033;-32
2023/07/08 06:13:16;;;;;;;7.72;4.65;;;19.60;99.90;;;;;;5023683;28;20076;-33
2023/07/08 06:15:42;;;;;;;8.00;4.80;;;19.60;99.90;;;;;;5021966;28;20045;-33
2023/07/08 06:18:07;;;;;;;6.57;4.40;;;19.70;99.90;;;;;;5021995;28;20045;-33
2023/07/08 06:20:33;;;;;;;7.78;4.65;;;19.80;99.90;;;;;;5022601;28;20109;-33
2023/07/08 06:22:59;;;;;;;8.18;4.88;;;19.90;99.90;;;;;;5020799;28;20088;-32
2023/07/08 06:25:24;;;;;;;9.90;4.78;;;20.00;99.90;;;;;;5026081;28;20032;-35
2023/07/08 06:27:50;;;;;;;9.13;5.40;;;20.00;99.90;;;;;;5022934;28;20029;-33
2023/07/08 06:30:16;;;;;;;7.28;4.45;;;20.10;99.90;;;;;;5003718;28;20444;-33
2023/07/08 06:32:41;;;;;;;8.80;4.80;;;20.00;99.90;;;;;;5021207;28;20029;-33
2023/07/08 06:35:07;;;;;;;7.13;4.45;;;20.00;99.90;;;;;;5023006;28;20487;-34
2023/07/08 06:37:33;;;;;;;8.73;5.35;;;20.00;99.90;;;;;;5020506;28;20044;-32
2023/07/08 06:39:59;;;;;;;7.18;5.03;;;20.10;99.90;;;;;;5021833;28;20033;-33
2023/07/08 06:42:24;;;;;;;8.90;5.00;;;20.20;99.90;;;;;;5023291;28;20039;-35
2023/07/08 06:44:50;;;;;;;8.05;4.68;;;20.20;99.90;;;;;;5021793;28;20041;-34
2023/07/08 06:47:20;;;;;;;7.60;4.43;;;20.20;99.90;;;;;;5022069;28;20040;-36
2023/07/08 06:49:47;;;;;;;7.93;4.88;;;20.20;99.90;;;;;;5021397;28;20032;-32
2023/07/08 06:52:12;;;;;;;8.30;4.88;;;20.20;99.90;;;;;;5021843;28;20166;-39
2023/07/08 06:54:38;;;;;;;6.95;4.28;;;20.30;99.90;;;;;;5025322;28;20117;-38
2023/07/08 06:57:04;;;;;;;7.55;4.55;;;20.20;99.90;;;;;;5020968;28;20861;-42
2023/07/08 06:59:30;;;;;;;8.55;4.97;;;20.20;99.90;;;;;;5020568;28;20514;-42
2023/07/08 07:01:57;;;;;;;8.55;4.90;;;20.30;99.90;;;;;;5019279;28;20137;-38
2023/07/08 07:04:22;;;;;;;10.48;5.53;;;20.40;99.90;;;;;;5021606;28;20108;-42
2023/07/08 07:06:48;;;;;;;8.10;4.93;;;20.40;99.90;;;;;;5023880;28;20037;-41
2023/07/08 07:09:13;;;;;;;11.45;6.18;;;20.40;99.90;;;;;;5022890;28;20021;-42
2023/07/08 07:11:39;;;;;;;9.93;5.43;;;20.10;99.90;;;;;;5022935;28;20080;-42
2023/07/08 07:14:04;;;;;;;9.02;5.82;;;20.20;99.90;;;;;;5021619;28;20033;-39
2023/07/08 07:16:30;;;;;;;9.00;4.70;;;20.20;99.90;;;;;;5022870;28;20668;-41
2023/07/08 07:18:56;;;;;;;9.60;4.88;;;20.10;99.90;;;;;;5018360;28;20033;-41
2023/07/08 07:21:21;;;;;;;8.98;5.60;;;20.20;99.90;;;;;;5023278;28;20169;-34
2023/07/08 07:23:47;;;;;;;9.23;5.53;;;20.30;99.90;;;;;;5024104;28;20119;-32
2023/07/08 07:26:13;;;;;;;8.27;5.43;;;20.30;99.90;;;;;;5021178;28;20057;-32
2023/07/08 07:28:39;;;;;;;9.23;5.40;;;20.30;99.90;;;;;;5020247;28;20026;-33
2023/07/08 07:31:07;;;;;;;8.20;5.00;;;20.30;99.90;;;;;;5017968;28;20033;-34
2023/07/08 07:33:33;;;;;;;;;;;20.40;99.90;;;;;;5016382;28;20033;-34
2023/07/08 07:35:59;;;;;;;9.20;5.20;;;20.40;99.90;;;;;;5020744;28;19995;-33
2023/07/08 07:38:28;;;;;;;9.73;5.68;;;20.40;99.90;;;;;;5019078;28;20068;-32
2023/07/08 07:40:55;;;;;;;10.13;5.25;;;20.40;99.90;;;;;;5020020;28;20077;-31
2023/07/08 07:43:21;;;;;;;10.15;5.65;;;20.60;99.90;;;;;;5022093;28;20033;-32
2023/07/08 07:45:53;;;;;;;7.85;5.20;;;20.60;99.90;;;;;;5019233;28;20025;-33
2023/07/08 07:48:24;;;;;;;9.93;5.72;;;20.70;99.90;;;;;;5019878;28;20036;-33
2023/07/08 07:50:51;;;;;;;9.18;5.75;;;20.70;99.90;;;;;;5021254;28;20048;-32
2023/07/08 07:53:17;;;;;;;9.35;5.90;;;20.60;99.90;;;;;;5018801;28;20045;-35
2023/07/08 07:55:43;;;;;;;8.88;5.50;;;20.50;99.90;;;;;;5020876;28;20041;-33
2023/07/08 07:58:11;;;;;;;9.35;5.75;;;20.40;99.90;;;;;;5020133;28;20030;-33
2023/07/08 08:00:38;;;;;;;14.70;6.22;;;20.40;99.90;;;;;;5017839;28;20064;-41
2023/07/08 08:03:03;;;;;;;10.32;5.70;;;20.50;99.90;;;;;;5021470;28;20038;-42
2023/07/08 08:05:29;;;;;;;7.72;5.00;;;20.70;99.90;;;;;;5020594;28;20639;-41
2023/07/08 08:07:55;;;;;;;9.57;5.50;;;20.70;99.90;;;;;;5021699;28;20112;-40
2023/07/08 08:10:20;;;;;;;10.00;5.65;;;20.90;99.90;;;;;;5021555;28;20202;-41
2023/07/08 08:12:50;;;;;;;9.38;5.22;;;21.00;99.90;;;;;;5018777;28;20017;-41
2023/07/08 08:15:16;;;;;;;8.40;5.43;;;21.00;99.90;;;;;;5021079;28;20040;-41
2023/07/08 08:17:47;;;;;;;8.32;5.15;;;21.20;99.90;;;;;;5002013;28;20426;-42
2023/07/08 08:20:12;;;;;;;12.32;5.53;;;21.20;99.90;;;;;;5023195;28;20104;-42
2023/07/08 08:22:38;;;;;;;7.88;5.40;;;21.30;99.90;;;;;;5021131;28;20475;-41
2023/07/08 08:25:04;;;;;;;7.85;5.03;;;21.40;99.90;;;;;;5021117;28;20036;-41
2023/07/08 08:27:29;;;;;;;9.60;5.28;;;21.50;99.90;;;;;;5019511;28;20068;-35
2023/07/08 08:29:55;;;;;;;8.38;5.32;;;21.70;99.90;;;;;;5019945;28;20543;-41
2023/07/08 08:32:20;;;;;;;7.88;5.03;;;21.60;99.90;;;;;;5019592;28;20116;-33
2023/07/08 08:34:46;;;;;;;8.27;5.25;;;21.50;99.90;;;;;;5023014;28;20084;-33
2023/07/08 08:37:12;;;;;;;6.97;5.07;;;21.60;99.90;;;;;;5023363;28;20025;-32
2023/07/08 08:39:37;;;;;;;11.75;6.22;;;21.60;99.90;;;;;;5021697;28;20056;-32
2023/07/08 08:42:04;;;;;;;9.43;5.28;;;21.80;99.90;;;;;;5022700;28;20129;-34
2023/07/08 08:44:35;;;;;;;9.25;5.05;;;22.00;99.90;;;;;;5020313;28;20083;-33
2023/07/08 08:47:06;;;;;;;11.68;6.15;;;22.20;99.90;;;;;;5028745;28;20376;-33
2023/07/08 08:49:41;;;;;;;8.45;5.35;;;22.20;99.90;;;;;;5029641;28;20087;-33
2023/07/08 08:52:07;;;;;;;7.28;5.00;;;22.60;99.90;;;;;;5023408;28;20029;-32
2023/07/08 08:54:32;;;;;;;9.13;5.10;;;22.90;99.90;;;;;;5021913;28;20040;-33
2023/07/08 08:57:32;;;;;;;8.15;5.18;;;23.10;99.90;;;;;;5026995;28;20072;-32
2023/07/08 08:59:59;;;;;;;10.77;5.47;;;23.40;99.90;;;;;;5024109;28;20061;-32
2023/07/08 09:02:34;;;;;;;10.80;5.70;;;23.40;99.90;;;;;;5025167;28;20057;-33
2023/07/08 09:05:11;;;;;;;10.00;5.70;;;23.50;99.90;;;;;;5022699;28;20030;-33
2023/07/08 09:07:45;;;;;;;9.50;5.45;;;23.50;99.90;;;;;;5024873;28;20082;-37
2023/07/08 09:10:25;;;;;;;9.13;5.18;;;23.50;99.90;;;;;;5024715;28;20225;-32
2023/07/08 09:12:53;;;;;;;9.25;5.78;;;23.60;99.90;;;;;;5029299;28;20957;-34
2023/07/08 09:15:19;;;;;;;7.82;5.45;;;23.60;99.90;;;;;;5025615;28;20029;-33
2023/07/08 09:17:45;;;;;;;9.13;5.40;;;23.60;99.90;;;;;;5026214;28;20076;-31
2023/07/08 09:20:23;;;;;;;8.70;5.18;;;23.60;99.90;;;;;;5027007;28;20392;-35
2023/07/08 09:23:11;;;;;;;;;;;23.80;99.90;;;;;;5025728;28;20033;-30
2023/07/08 09:25:53;;;;;;;9.30;5.60;;;23.80;99.90;;;;;;5029350;28;20012;-31
2023/07/08 09:28:19;;;;;;;8.93;5.05;;;23.90;99.90;;;;;;5027945;28;20582;-31
2023/07/08 09:30:49;;;;;;;8.65;5.30;;;24.10;99.90;;;;;;5024935;28;20037;-34
2023/07/08 09:33:15;;;;;;;8.55;5.70;;;24.20;99.90;;;;;;5026316;28;20033;-33
2023/07/08 09:35:45;;;;;;;7.50;5.10;;;24.40;99.90;;;;;;5025454;28;20041;-31
2023/07/08 09:38:15;;;;;;;7.85;4.90;;;24.40;99.90;;;;;;5026557;28;20037;-34
2023/07/08 09:40:49;;;;;;;9.25;4.80;;;24.50;99.90;;;;;;5028669;28;20026;-32
2023/07/08 09:43:25;;;;;;;6.82;4.57;;;24.70;99.90;;;;;;5025524;28;20403;-38
2023/07/08 09:45:51;;;;;;;9.10;4.88;;;24.90;99.90;;;;;;5021915;28;20029;-33
2023/07/08 09:48:21;;;;;;;9.13;4.88;;;24.90;99.90;;;;;;5023528;28;20028;-41
2023/07/08 09:50:50;;;;;;;8.50;4.90;;;25.00;99.90;;;;;;5021294;28;20025;-41
2023/07/08 09:53:16;;;;;;;13.20;8.15;;;25.20;99.90;;;;;;5025524;28;20467;-41
2023/07/08 09:55:42;;;;;;;12.77;6.82;;;25.40;99.90;;;;;;5025051;28;20033;-42
2023/07/08 09:58:13;;;;;;;26.45;17.10;;;25.30;99.90;;;;;;5023575;28;20085;-42
2023/07/08 10:00:41;;;;;;;11.45;7.18;;;25.70;99.90;;;;;;5021695;28;20606;-42
2023/07/08 10:03:10;;;;;;;8.15;6.15;;;26.00;99.90;;;;;;5021734;28;20487;-42
2023/07/08 10:05:40;;;;;;;6.05;4.28;;;26.40;99.90;;;;;;5023363;28;20021;-40
2023/07/08 10:08:16;;;;;;;7.70;4.97;;;26.40;99.90;;;;;;5023263;28;20083;-40
2023/07/08 10:10:43;;;;;;;6.97;4.50;;;26.80;99.90;;;;;;5026802;28;20537;-42
2023/07/08 10:13:37;;;;;;;7.30;4.28;;;27.30;99.90;;;;;;5025273;28;20022;-42
2023/07/08 10:16:24;;;;;;;7.68;5.00;;;27.40;99.90;;;;;;5021416;28;20037;-42
2023/07/08 10:18:50;;;;;;;7.13;4.22;;;27.30;99.90;;;;;;5014242;28;20376;-36
2023/07/08 10:21:42;;;;;;;7.72;5.15;;;26.90;99.90;;;;;;5021678;28;20105;-36
2023/07/08 10:24:43;;;;;;;6.97;4.00;;;26.80;99.90;;;;;;5023532;28;20022;-32
2023/07/08 10:27:25;;;;;;;7.28;4.10;;;26.80;99.90;;;;;;4943486;28;20734;-33
2023/07/08 10:30:16;;;;;;;5.60;3.90;;;26.40;99.90;;;;;;5014724;28;20045;-39
2023/07/08 10:32:58;;;;;;;6.05;3.72;;;26.30;99.90;;;;;;5021452;28;20617;-33
2023/07/08 10:35:36;;;;;;;5.85;3.70;;;26.20;99.90;;;;;;5018197;28;20026;-35
2023/07/08 10:38:30;;;;;;;6.53;4.00;;;26.30;99.90;;;;;;5022986;28;20084;-32
2023/07/08 10:41:41;;;;;;;6.50;4.50;;;26.40;99.90;;;;;;5024813;28;20450;-32
2023/07/08 10:44:19;;;;;;;6.50;4.03;;;26.50;99.90;;;;;;4999224;28;20042;-35
2023/07/08 10:47:10;;;;;;;7.32;4.57;;;26.70;99.90;;;;;;5019985;28;20721;-35
2023/07/08 10:49:59;;;;;;;8.27;5.30;;;26.60;99.90;;;;;;5021506;28;20464;-33
2023/07/08 10:52:52;;;;;;;15.15;10.60;;;26.70;99.90;;;;;;5018696;28;20091;-32
2023/07/08 10:55:30;;;;;;;7.05;4.68;;;26.60;99.90;;;;;;5023823;28;20037;-31
2023/07/08 10:58:17;;;;;;;7.18;4.07;;;26.60;99.90;;;;;;5024886;28;20033;-31
2023/07/08 11:01:07;;;;;;;10.00;5.15;;;26.40;99.90;;;;;;5019751;28;20495;-33
2023/07/08 11:03:59;;;;;;;9.65;5.38;;;26.20;99.90;;;;;;5024118;28;20609;-31
2023/07/08 11:06:46;;;;;;;6.95;4.70;;;26.20;99.90;;;;;;5023586;28;20054;-32
2023/07/08 11:09:17;;;;;;;6.65;4.20;;;26.50;99.90;;;;;;5023295;28;20069;-31
2023/07/08 11:11:46;;;;;;;6.53;4.80;;;27.00;99.90;;;;;;5025559;28;20022;-33
2023/07/08 11:14:20;;;;;;;5.38;3.38;;;27.30;99.90;;;;;;5022924;28;20398;-30
2023/07/08 11:17:04;;;;;;;7.22;3.97;;;27.20;99.90;;;;;;5025410;28;20084;-32
2023/07/08 11:19:36;;;;;;;7.60;3.83;;;27.60;99.90;;;;;;5019748;28;20388;-32
2023/07/08 11:22:09;;;;;;;5.97;3.67;;;27.80;99.90;;;;;;5019399;28;20499;-33
2023/07/08 11:24:50;;;;;;;6.20;3.95;;;28.10;99.90;;;;;;5021367;28;20034;-34
2023/07/08 11:27:38;;;;;;;6.65;3.58;;;28.20;99.90;;;;;;5023766;28;20033;-31
2023/07/08 11:30:16;;;;;;;6.82;3.95;;;28.10;99.90;;;;;;5019215;28;20533;-33
2023/07/08 11:32:46;;;;;;;6.05;3.72;;;28.10;99.90;;;;;;5017765;28;20073;-30
2023/07/08 11:35:28;;;;;;;5.82;3.40;;;28.50;99.90;;;;;;5020983;28;20030;-33
2023/07/08 11:37:55;;;;;;;4.70;3.20;;;28.30;99.90;;;;;;5023282;28;20025;-35
2023/07/08 11:40:23;;;;;;;5.17;3.60;;;28.70;99.90;;;;;;5027157;28;20487;-30
2023/07/08 11:42:51;;;;;;;4.68;3.15;;;28.80;99.90;;;;;;5021484;28;20287;-31
2023/07/08 11:45:40;;;;;;;7.75;3.53;;;29.10;99.90;;;;;;5024037;28;20487;-36
2023/07/08 11:48:25;;;;;;;5.68;3.15;;;29.10;99.90;;;;;;5019515;28;20097;-31
2023/07/08 11:50:52;;;;;;;5.13;3.33;;;29.10;99.90;;;;;;5021841;28;20112;-34
2023/07/08 11:53:55;;;;;;;5.32;3.53;;;29.20;99.90;;;;;;5022883;28;20072;-30
2023/07/08 11:56:23;;;;;;;4.78;3.33;;;29.50;99.90;;;;;;5011301;28;20647;-31
2023/07/08 11:58:48;;;;;;;4.28;2.88;;;29.30;99.90;;;;;;5022823;28;20465;-31
2023/07/08 12:01:17;;;;;;;6.47;3.55;;;29.40;99.90;;;;;;5020403;28;20045;-33
2023/07/08 12:03:51;;;;;;;5.95;3.88;;;29.30;99.90;;;;;;5000165;28;20120;-32
2023/07/08 12:06:31;;;;;;;4.68;3.45;;;29.10;99.90;;;;;;5021306;28;20084;-32
2023/07/08 12:08:59;;;;;;;51.58;11.43;;;29.40;99.90;;;;;;5018358;28;20044;-32
2023/07/08 12:11:31;;;;;;;;;;;29.50;99.90;;;;;;5023427;28;20052;-33
2023/07/08 12:13:59;;;;;;;5.80;3.10;;;29.10;99.90;;;;;;5019372;28;19913;-33
2023/07/08 12:16:27;;;;;;;4.55;2.92;;;28.80;99.90;;;;;;5019398;28;20146;-34
2023/07/08 12:18:54;;;;;;;6.18;3.35;;;28.60;99.90;;;;;;5019706;28;20045;-32
2023/07/08 12:21:23;;;;;;;6.38;3.58;;;28.60;99.90;;;;;;5025980;28;20039;-32
2023/07/08 12:23:49;;;;;;;4.95;3.38;;;28.40;99.90;;;;;;5025268;28;20081;-35
2023/07/08 12:26:15;;;;;;;4.38;3.08;;;28.50;99.90;;;;;;5025852;28;20149;-34
2023/07/08 12:28:42;;;;;;;5.00;3.20;;;29.00;99.90;;;;;;5025154;28;20018;-34
2023/07/08 12:31:34;;;;;;;20.83;5.93;;;29.60;99.90;;;;;;5023274;28;20030;-32
2023/07/08 12:34:00;;;;;;;14.82;4.00;;;29.50;99.90;;;;;;5020450;28;20041;-32
2023/07/08 12:36:28;;;;;;;3.67;2.80;;;29.20;99.90;;;;;;5027006;28;20105;-32
2023/07/08 12:38:56;;;;;;;5.85;3.20;;;29.10;99.90;;;;;;5021908;28;20052;-34
2023/07/08 12:41:25;;;;;;;5.80;3.40;;;28.90;99.90;;;;;;5026668;28;20392;-33
2023/07/08 12:43:52;;;;;;;5.47;3.20;;;29.00;99.90;;;;;;5027724;28;20116;-31
2023/07/08 12:46:21;;;;;;;6.07;2.83;;;29.10;99.90;;;;;;5026465;28;20129;-31
2023/07/08 12:48:47;;;;;;;5.57;3.45;;;29.20;99.90;;;;;;5024075;28;20092;-30
2023/07/08 12:51:20;;;;;;;5.68;3.22;;;29.00;99.90;;;;;;5029331;28;20028;-31
2023/07/08 12:53:47;;;;;;;5.13;2.90;;;29.00;99.90;;;;;;5028815;28;20029;-31
2023/07/08 12:56:13;;;;;;;5.43;3.20;;;29.00;99.90;;;;;;5024104;28;20033;-33
2023/07/08 12:58:45;;;;;;;5.53;2.95;;;29.20;99.90;;;;;;5027597;28;20049;-31